Tropical Cyclones
[Index]
Main Index Home Page Stock Weather Photos Extreme Storms Discussion Storm News and Storm Chasing Reports Tropical Cyclones / Hurricanes / Typhoons Weather Data and Links Wild Fires / Bushfires Weather Observation Techniques Weather Picture Catalogue Tornado Pictures and Reports Stock Video Footage and DVDs for sale
Season 2002-2003 Tropical Cyclone INIGO Track Map
Season 2002-2003 Summaries: [BoM-AU] [JTWC-AU] [JTWC-SIO] [JTWC-SPAC] [JTWC-SH]
<<- Previous TC | JTWC 2002-2003 Season | Next TC ->>

click for intensity scale information  Lat/long Grid: Show Hide

 Date Labels: Show Hide

Joint Typhoon Warning Centre Cyclone Data

Name: INIGO

29 Mar 2003 06:00 UTC to 08 Apr 2003 18:00 UTC

    date/time    lat    long     hPa   cat  kts
2003-03-29 06    7.0   130.6    1006         15          
2003-03-29 12    7.1   129.9    1006         15          
2003-03-29 18    7.3   129.2    1006         15          
2003-03-30 00    7.6   128.5    1004         20          
2003-03-30 06    7.9   127.8    1002         25          
2003-03-30 12    8.2   126.9    1002         25          
2003-03-30 18    8.5   126.0    1002         25          
2003-03-31 00    8.8   124.9    1002         25          
2003-03-31 06    9.0   123.8    1005         30          
2003-03-31 12    9.4   122.7    1000         30          
2003-03-31 18    9.5   121.9    1000         30          
2003-04-01 00    9.4   121.2    1000         30          
2003-04-01 06    9.7   120.7    1000         30          
2003-04-01 12   10.1   120.3     997         35          
2003-04-01 18   10.3   119.7     997         35          
2003-04-02 00   10.8   119.3     991    1    45          
2003-04-02 06   11.2   118.9     991    1    45          
2003-04-02 12   11.4   118.5     984    2    55          
2003-04-02 18   11.6   118.2     976    2    65          
2003-04-03 00   11.7   117.9     967    3    75          
2003-04-03 06   11.9   117.4     944    4   100          
2003-04-03 12   12.1   116.9     933    4   110          
2003-04-03 18   12.3   116.4     916    5   125          
2003-04-04 00   12.6   115.8     898    5   140          
2003-04-04 06   13.1   115.2     898    5   140          
2003-04-04 12   13.5   114.6     898    5   140          
2003-04-04 18   13.9   114.1     898    5   140          
2003-04-05 00   14.3   113.6     910    5   130          
2003-04-05 06   14.5   113.2     916    5   125          
2003-04-05 12   14.7   113.0     916    5   125          
2003-04-05 18   14.9   112.8     927    4   115          
2003-04-06 00   15.1   112.7     938    4   105          
2003-04-06 06   15.4   112.7     944    4   100          
2003-04-06 12   15.8   112.8     954    3    90          
2003-04-06 18   16.4   113.0     963    3    80          
2003-04-07 00   17.0   113.3     972    2    70          
2003-04-07 06   17.6   113.9     976    2    65          
2003-04-07 12   18.3   114.8     984    2    55          
2003-04-07 18   19.0   115.1     984    2    55          
2003-04-08 00   19.9   115.5     987    1    50          
2003-04-08 06   20.9   116.2     994    1    40          
2003-04-08 12   21.9   117.7    1002         25          
2003-04-08 18   23.4   118.2    1002         25          
Winds are 1-min average.

Tropical cyclone tracks developed by Michael Bath using data from the Joint Typhoon Warning Centre Best Tracks and Google Maps.


[Australian Severe Weather index] [Copyright Notice] [Email Contacts] [Search This Site] [Privacy Policy]
Document: tropical_cyclone_inigo.htm Updated: 28 June 2017